createdAt,value
2019-02-21T00:02:45.783Z,34.00
2019-02-21T00:05:35.555Z,30.63
2019-02-21T00:08:25.370Z,32.50
2019-02-21T00:11:15.152Z,34.17
2019-02-21T00:14:04.944Z,36.50
2019-02-21T00:16:54.771Z,34.40
2019-02-21T00:19:44.549Z,26.60
2019-02-21T00:22:34.330Z,30.40
2019-02-21T00:25:24.158Z,25.90
2019-02-21T00:28:13.964Z,28.53
2019-02-21T00:31:04.273Z,27.53
2019-02-21T00:33:54.482Z,33.10
2019-02-21T00:36:44.444Z,34.20
2019-02-21T00:39:34.206Z,31.27
2019-02-21T00:42:24.030Z,35.33
2019-02-21T00:45:13.815Z,30.30
2019-02-21T00:48:03.610Z,30.90
2019-02-21T00:50:53.395Z,31.10
2019-02-21T00:53:43.189Z,27.73
2019-02-21T00:56:32.937Z,29.20
2019-02-21T00:59:22.842Z,28.60
2019-02-21T01:02:12.629Z,35.07
2019-02-21T01:05:02.458Z,34.80
2019-02-21T01:08:11.093Z,30.70
2019-02-21T01:11:00.870Z,28.40
2019-02-21T01:13:50.703Z,31.93
2019-02-21T01:16:40.507Z,32.50
2019-02-21T01:19:30.343Z,31.50
2019-02-21T01:22:20.138Z,31.20
2019-02-21T01:25:09.925Z,32.60
2019-02-21T01:27:59.701Z,29.93
2019-02-21T01:30:56.716Z,30.37
2019-02-21T01:33:34.411Z,32.07
2019-02-21T01:36:24.225Z,33.37
2019-02-21T01:39:14.067Z,34.30
2019-02-21T01:42:03.851Z,33.73
2019-02-21T01:44:53.676Z,38.20
2019-02-21T01:47:43.447Z,36.70
2019-02-21T01:50:33.277Z,36.37
2019-02-21T01:53:23.038Z,41.50
2019-02-21T01:56:12.900Z,41.67
2019-02-21T01:59:02.619Z,44.73
2019-02-21T02:01:52.415Z,41.07
2019-02-21T02:04:42.189Z,44.60
2019-02-21T02:07:32.000Z,41.70
2019-02-21T02:10:21.806Z,49.23
2019-02-21T02:13:23.703Z,56.67
2019-02-21T02:15:54.677Z,41.50
2019-02-21T02:18:44.448Z,48.33
2019-02-21T02:21:34.203Z,43.80
2019-02-21T02:24:23.993Z,44.07
2019-02-21T02:27:13.743Z,45.67
2019-02-21T02:30:03.542Z,44.80
2019-02-21T02:32:53.279Z,42.67
2019-02-21T02:35:43.075Z,41.70
2019-02-21T02:38:32.881Z,40.53
2019-02-21T02:41:22.683Z,43.73
2019-02-21T02:44:12.479Z,47.50
2019-02-21T02:47:02.256Z,44.60
2019-02-21T02:49:52.042Z,43.80
2019-02-21T02:52:41.913Z,40.93
2019-02-21T02:55:31.708Z,43.63
2019-02-21T02:58:21.507Z,45.73
2019-02-21T03:01:11.374Z,48.63
2019-02-21T03:04:01.319Z,45.80
2019-02-21T03:06:45.689Z,46.13
2019-02-21T03:09:35.457Z,46.47
2019-02-21T03:12:25.220Z,47.90
2019-02-21T03:15:15.013Z,47.20
2019-02-21T03:18:04.780Z,48.60
2019-02-21T03:20:54.572Z,51.30
2019-02-21T03:23:44.358Z,56.63
2019-02-21T03:26:34.507Z,51.43
2019-02-21T03:29:24.310Z,54.80
2019-02-21T03:32:14.115Z,57.60
2019-02-21T03:35:03.893Z,52.83
2019-02-21T03:37:53.728Z,53.73
2019-02-21T03:40:43.609Z,57.70
2019-02-21T03:43:33.465Z,51.63
2019-02-21T03:46:23.332Z,55.07
2019-02-21T03:49:15.220Z,47.70
2019-02-21T03:52:04.994Z,52.10
2019-02-21T03:54:54.782Z,55.57
2019-02-21T03:57:44.558Z,55.50
2019-02-21T04:00:34.351Z,52.03
2019-02-21T04:03:24.132Z,53.27
2019-02-21T04:06:13.925Z,55.87
2019-02-21T04:09:04.532Z,51.03
2019-02-21T04:11:54.343Z,59.10
2019-02-21T04:14:44.115Z,51.63
2019-02-21T04:17:33.896Z,56.73
2019-02-21T04:20:23.690Z,61.03
2019-02-21T04:23:13.479Z,63.20
2019-02-21T04:26:03.282Z,52.20
2019-02-21T04:28:53.062Z,57.00
2019-02-21T04:31:42.833Z,56.03
2019-02-21T04:34:32.613Z,54.27
2019-02-21T04:37:22.379Z,55.00
2019-02-21T04:40:13.105Z,61.93
2019-02-21T04:43:02.880Z,52.63
2019-02-21T04:45:52.659Z,54.77
2019-02-21T04:48:42.446Z,59.23
2019-02-21T04:51:32.246Z,57.57
2019-02-21T04:54:22.046Z,54.43
2019-02-21T04:57:11.889Z,60.73
2019-02-21T05:00:01.696Z,56.23
2019-02-21T05:02:51.525Z,56.57
2019-02-21T05:05:41.678Z,53.07
2019-02-21T05:08:31.513Z,62.20
2019-02-21T05:11:21.340Z,64.60
2019-02-21T05:14:11.199Z,56.93
2019-02-21T05:17:01.022Z,65.37
2019-02-21T05:19:50.758Z,60.77
2019-02-21T05:22:40.588Z,60.83
2019-02-21T05:25:30.433Z,63.87
2019-02-21T05:28:41.181Z,59.20
2019-02-21T05:31:41.318Z,63.10
2019-02-21T05:34:50.005Z,63.53
2019-02-21T05:37:58.653Z,66.27
2019-02-21T05:41:07.349Z,61.90
2019-02-21T05:44:16.064Z,66.67
2019-02-21T05:47:21.769Z,59.33
2019-02-21T05:50:30.449Z,61.93
2019-02-21T05:53:39.091Z,64.20
2019-02-21T05:56:47.748Z,62.87
2019-02-21T05:59:52.617Z,56.80
2019-02-21T06:03:01.279Z,66.77
2019-02-21T06:06:06.592Z,63.17
2019-02-21T06:09:15.268Z,62.40
2019-02-21T06:12:33.110Z,60.43
2019-02-21T06:15:21.455Z,59.33
2019-02-21T06:18:30.083Z,65.67
2019-02-21T06:21:38.760Z,59.53
2019-02-21T06:24:47.417Z,64.40
2019-02-21T06:27:45.079Z,60.00
2019-02-21T06:30:47.892Z,63.93
2019-02-21T06:33:37.683Z,62.47
2019-02-21T06:36:27.506Z,64.00
2019-02-21T06:39:17.283Z,57.60
2019-02-21T06:42:07.073Z,61.57
2019-02-21T06:44:56.871Z,62.33
2019-02-21T06:47:46.655Z,61.73
2019-02-21T06:50:36.539Z,62.90
2019-02-21T06:53:26.404Z,75.63
2019-02-21T06:56:16.246Z,77.13
2019-02-21T06:59:06.021Z,75.87
2019-02-21T07:01:55.817Z,63.50
2019-02-21T07:04:45.651Z,68.60
2019-02-21T07:07:35.442Z,65.60
2019-02-21T07:10:25.246Z,65.13
2019-02-21T07:13:25.990Z,67.20
2019-02-21T07:15:52.657Z,59.67
2019-02-21T07:18:42.458Z,64.33
2019-02-21T07:21:32.239Z,61.13
2019-02-21T07:27:06.180Z,63.30
2019-02-21T07:29:56.003Z,63.13
2019-02-21T07:32:45.815Z,61.70
2019-02-21T07:35:35.609Z,62.37
2019-02-21T07:38:25.424Z,64.60
2019-02-21T07:41:15.682Z,65.03
2019-02-21T07:43:52.841Z,59.33
2019-02-21T07:46:42.711Z,67.60
2019-02-21T07:49:32.512Z,63.27
2019-02-21T07:52:22.327Z,60.10
2019-02-21T07:55:12.194Z,65.30
2019-02-21T07:58:03.944Z,55.93
2019-02-21T08:00:45.194Z,66.00
2019-02-21T08:03:43.825Z,61.80
2019-02-21T08:06:19.970Z,64.13
2019-02-21T08:09:01.351Z,63.90
2019-02-21T08:11:51.158Z,58.10
2019-02-21T08:14:43.301Z,62.20
2019-02-21T08:17:24.049Z,61.40
2019-02-21T08:20:13.867Z,60.70
2019-02-21T08:23:03.683Z,59.67
2019-02-21T08:25:53.450Z,55.77
2019-02-21T08:28:43.252Z,55.83
2019-02-21T08:31:33.012Z,65.97
2019-02-21T08:34:35.736Z,57.57
2019-02-21T08:37:25.522Z,54.40
2019-02-21T08:40:15.341Z,50.97
2019-02-21T08:43:05.158Z,62.27
2019-02-21T08:45:57.441Z,62.10
2019-02-21T08:48:32.480Z,42.97
2019-02-21T08:51:22.294Z,45.00
2019-02-21T08:54:12.131Z,45.17
2019-02-21T08:57:01.901Z,47.73
2019-02-21T08:59:51.656Z,48.70
2019-02-21T09:02:41.487Z,48.27
2019-02-21T09:05:31.259Z,44.17
2019-02-21T09:08:21.039Z,54.53
2019-02-21T09:11:10.834Z,45.10
2019-02-21T09:14:00.634Z,41.70
2019-02-21T09:16:50.415Z,46.80
2019-02-21T09:19:40.251Z,39.70
2019-02-21T09:22:30.054Z,41.13
2019-02-21T09:25:19.860Z,37.30
2019-02-21T09:28:09.705Z,33.50
2019-02-21T09:30:59.557Z,40.67
2019-02-21T09:33:49.355Z,37.70
2019-02-21T09:36:39.136Z,37.27
2019-02-21T09:39:28.952Z,35.93
2019-02-21T09:42:18.828Z,39.60
2019-02-21T09:45:11.729Z,30.90
2019-02-21T09:48:01.540Z,34.73
2019-02-21T09:50:51.392Z,34.60
2019-02-21T09:53:41.184Z,37.73
2019-02-21T09:56:31.063Z,32.23
2019-02-21T09:59:39.886Z,31.40
2019-02-21T10:02:29.730Z,31.57
2019-02-21T10:05:19.536Z,35.93
2019-02-21T10:08:09.342Z,33.87
2019-02-21T10:11:00.861Z,34.00
2019-02-21T10:13:45.407Z,40.00
2019-02-21T10:16:35.217Z,29.33
2019-02-21T10:19:25.002Z,31.23
2019-02-21T10:22:14.817Z,32.37
2019-02-21T10:25:05.270Z,33.13
2019-02-21T10:27:55.094Z,34.13
2019-02-21T10:30:44.901Z,34.40
2019-02-21T10:33:34.685Z,40.80
2019-02-21T10:36:24.562Z,38.80
2019-02-21T10:39:14.387Z,42.70
2019-02-21T10:42:04.340Z,45.10
2019-02-21T10:44:54.135Z,45.20
2019-02-21T10:47:43.944Z,45.23
2019-02-21T10:50:33.734Z,44.73
2019-02-21T10:53:23.533Z,44.83
2019-02-21T10:56:13.379Z,47.07
2019-02-21T10:59:03.191Z,41.60
2019-02-21T11:01:53.082Z,37.33
2019-02-21T11:04:54.073Z,35.73
2019-02-21T11:07:25.330Z,35.37
2019-02-21T11:13:36.780Z,36.53
2019-02-21T11:16:26.556Z,41.00
2019-02-21T11:19:16.369Z,35.03
2019-02-21T11:22:06.109Z,40.20
2019-02-21T11:24:55.899Z,35.03
2019-02-21T11:27:45.646Z,34.87
2019-02-21T11:30:35.439Z,40.93
2019-02-21T11:33:25.183Z,37.90
2019-02-21T11:36:14.986Z,40.47
2019-02-21T11:42:28.934Z,33.97
2019-02-21T11:48:45.491Z,38.57
2019-02-21T11:51:35.250Z,35.87
2019-02-21T11:54:27.250Z,41.37
2019-02-21T11:57:16.610Z,43.43
2019-02-21T12:03:29.202Z,34.40
2019-02-21T12:06:18.993Z,36.03
2019-02-21T12:12:30.789Z,33.07
2019-02-21T12:15:20.547Z,40.07
2019-02-21T12:18:10.441Z,35.80
2019-02-21T12:21:00.199Z,40.03
2019-02-21T12:23:49.991Z,38.70
2019-02-21T12:26:39.773Z,44.53
2019-02-21T12:29:29.564Z,43.00
2019-02-21T12:32:19.396Z,44.17
2019-02-21T12:35:09.338Z,44.27
2019-02-21T12:37:59.136Z,53.43
2019-02-21T12:40:48.923Z,43.03
2019-02-21T12:43:38.673Z,41.40
2019-02-21T12:46:28.450Z,44.80
2019-02-21T12:49:18.191Z,50.60
2019-02-21T12:52:08.003Z,40.27
2019-02-21T12:54:57.751Z,47.43
2019-02-21T12:57:47.561Z,44.33
2019-02-21T13:00:37.341Z,34.10
2019-02-21T13:03:27.109Z,33.40
2019-02-21T13:06:16.908Z,39.23
2019-02-21T13:11:49.523Z,30.20
2019-02-21T13:14:39.288Z,32.60
2019-02-21T13:17:29.084Z,37.13
2019-02-21T13:20:18.869Z,30.10
2019-02-21T13:23:08.725Z,26.30
2019-02-21T13:25:58.630Z,29.37
2019-02-21T13:28:48.437Z,26.33
2019-02-21T13:31:38.214Z,24.70
2019-02-21T13:34:28.011Z,24.87
2019-02-21T13:37:28.280Z,26.23
2019-02-21T13:40:01.173Z,20.17
2019-02-21T13:42:50.933Z,22.50
2019-02-21T13:45:40.758Z,26.93
2019-02-21T13:48:30.599Z,25.87
2019-02-21T13:51:20.411Z,21.70
2019-02-21T13:54:10.232Z,21.80
2019-02-21T13:57:00.062Z,24.70
2019-02-21T13:59:49.862Z,18.90
2019-02-21T14:02:39.702Z,20.27
2019-02-21T14:05:29.488Z,23.03
2019-02-21T14:08:19.309Z,25.03
2019-02-21T14:11:09.197Z,26.40
2019-02-21T14:13:58.994Z,28.50
2019-02-21T14:16:48.787Z,30.70
2019-02-21T14:19:38.667Z,31.53
2019-02-21T14:22:28.540Z,34.77
2019-02-21T14:25:18.330Z,33.67
2019-02-21T14:28:08.148Z,35.23
2019-02-21T14:30:57.981Z,31.00
2019-02-21T14:33:47.772Z,27.33
2019-02-21T14:36:37.584Z,28.33
2019-02-21T14:39:27.393Z,30.40
2019-02-21T14:42:17.177Z,27.43
2019-02-21T14:45:08.050Z,27.80
2019-02-21T14:47:57.846Z,31.20
2019-02-21T14:50:47.622Z,26.83
2019-02-21T14:53:37.427Z,23.83
2019-02-21T14:56:27.223Z,28.30
2019-02-21T15:02:20.176Z,28.87
2019-02-21T15:05:10.237Z,28.30
2019-02-21T15:07:53.023Z,25.00
2019-02-21T15:10:42.852Z,25.90
2019-02-21T15:13:32.671Z,25.33
2019-02-21T15:16:22.450Z,26.10
2019-02-21T15:19:12.252Z,24.07
2019-02-21T15:22:02.044Z,27.10
2019-02-21T15:24:51.814Z,25.83
2019-02-21T15:27:41.628Z,24.93
2019-02-21T15:30:31.563Z,24.93
2019-02-21T15:33:21.376Z,28.87
2019-02-21T15:36:11.243Z,25.87
2019-02-21T15:39:01.053Z,27.53
2019-02-21T15:41:50.878Z,32.50
2019-02-21T15:44:40.662Z,29.87
2019-02-21T15:47:30.456Z,27.37
2019-02-21T15:50:20.487Z,26.50
2019-02-21T15:53:10.386Z,27.43
2019-02-21T15:56:00.189Z,30.27
2019-02-21T15:58:49.974Z,30.33
2019-02-21T16:01:47.081Z,30.53
2019-02-21T16:04:24.033Z,28.67
2019-02-21T16:07:13.846Z,28.80
2019-02-21T16:10:03.655Z,30.80
2019-02-21T16:12:53.541Z,28.33
2019-02-21T16:15:43.366Z,32.93
2019-02-21T16:18:33.138Z,28.07
2019-02-21T16:21:22.943Z,25.77
2019-02-21T16:24:12.753Z,23.97
2019-02-21T16:27:02.616Z,28.87
2019-02-21T16:29:52.435Z,29.97
2019-02-21T16:32:42.265Z,27.33
2019-02-21T16:35:32.042Z,31.93
2019-02-21T16:38:21.891Z,33.30
2019-02-21T16:41:11.689Z,29.67
2019-02-21T16:44:01.501Z,30.43
2019-02-21T16:46:51.274Z,32.90
2019-02-21T16:49:41.148Z,34.40
2019-02-21T16:52:30.939Z,37.60
2019-02-21T16:55:20.759Z,30.43
2019-02-21T16:58:10.544Z,42.80
2019-02-21T17:01:00.326Z,36.20
2019-02-21T17:03:50.125Z,33.43
2019-02-21T17:06:39.936Z,32.47
2019-02-21T17:09:29.710Z,33.40
2019-02-21T17:12:19.502Z,30.07
2019-02-21T17:15:10.582Z,32.93
2019-02-21T17:18:03.829Z,28.40
2019-02-21T17:20:44.518Z,29.17
2019-02-21T17:23:34.292Z,30.93
2019-02-21T17:26:24.034Z,30.47
2019-02-21T17:29:13.831Z,25.23
2019-02-21T17:32:03.613Z,27.47
2019-02-21T17:34:53.411Z,26.67
2019-02-21T17:37:43.161Z,32.27
2019-02-21T17:40:32.969Z,33.10
2019-02-21T17:43:22.726Z,26.03
2019-02-21T17:46:12.540Z,31.63
2019-02-21T17:49:02.296Z,29.03
2019-02-21T17:51:53.810Z,26.90
2019-02-21T17:54:35.131Z,26.87
2019-02-21T17:57:24.918Z,33.80
2019-02-21T18:00:17.506Z,30.63
2019-02-21T18:03:07.344Z,23.13
2019-02-21T18:05:57.138Z,23.73
2019-02-21T18:08:46.927Z,22.00
2019-02-21T18:11:36.765Z,29.30
2019-02-21T18:14:26.543Z,30.03
2019-02-21T18:17:16.343Z,26.17
2019-02-21T18:20:06.712Z,26.40
2019-02-21T18:22:56.507Z,23.83
2019-02-21T18:26:07.112Z,23.80
2019-02-21T18:28:56.927Z,21.43
2019-02-21T18:31:46.744Z,22.27
2019-02-21T18:34:36.604Z,28.80
2019-02-21T18:37:26.441Z,25.50
2019-02-21T18:40:19.699Z,28.50
2019-02-21T18:43:08.329Z,25.73
2019-02-21T18:45:58.131Z,23.60
2019-02-21T18:48:47.919Z,22.10
2019-02-21T18:51:37.723Z,19.37
2019-02-21T18:54:27.592Z,18.00
2019-02-21T18:57:17.405Z,19.70
2019-02-21T19:03:33.429Z,26.40
2019-02-21T19:06:23.228Z,24.00
2019-02-21T19:09:13.051Z,24.13
2019-02-21T19:12:02.859Z,27.20
2019-02-21T19:14:52.744Z,24.00
2019-02-21T19:17:42.527Z,24.60
2019-02-21T19:20:32.369Z,25.83
2019-02-21T19:23:22.227Z,29.50
2019-02-21T19:26:12.401Z,34.63
2019-02-21T19:29:02.317Z,26.50
2019-02-21T19:31:52.186Z,26.30
2019-02-21T19:34:42.069Z,23.60
2019-02-21T19:37:32.073Z,27.70
2019-02-21T19:40:21.973Z,22.33
2019-02-21T19:43:11.885Z,23.67
2019-02-21T19:46:01.768Z,23.90
2019-02-21T19:48:51.745Z,29.63
2019-02-21T19:51:41.686Z,28.20
2019-02-21T19:54:31.529Z,31.60
2019-02-21T19:57:21.412Z,27.77
2019-02-21T20:00:26.231Z,25.77
2019-02-21T20:03:16.065Z,23.77
2019-02-21T20:06:06.001Z,24.90
2019-02-21T20:08:55.947Z,25.10
2019-02-21T20:11:45.754Z,22.83
2019-02-21T20:14:35.605Z,21.70
2019-02-21T20:17:25.534Z,24.37
2019-02-21T20:20:16.751Z,26.43
2019-02-21T20:23:06.570Z,29.80
2019-02-21T20:25:56.392Z,29.50
2019-02-21T20:28:46.303Z,28.93
2019-02-21T20:31:37.247Z,26.73
2019-02-21T20:34:27.166Z,25.93
2019-02-21T20:37:17.004Z,29.60
2019-02-21T20:40:07.195Z,25.90
2019-02-21T20:42:57.121Z,30.73
2019-02-21T20:45:53.156Z,26.77
2019-02-21T20:48:30.689Z,27.30
2019-02-21T20:51:13.462Z,31.53
2019-02-21T20:54:03.315Z,26.30
2019-02-21T20:56:53.166Z,35.73
2019-02-21T20:59:43.003Z,35.93
2019-02-21T21:02:33.512Z,32.83
2019-02-21T21:05:23.700Z,28.73
2019-02-21T21:08:13.670Z,34.33
2019-02-21T21:11:03.733Z,29.93
2019-02-21T21:13:56.514Z,32.80
2019-02-21T21:16:48.384Z,28.47
2019-02-21T21:19:38.250Z,28.00
2019-02-21T21:22:28.118Z,24.67
2019-02-21T21:25:18.009Z,27.77
2019-02-21T21:28:07.999Z,27.87
2019-02-21T21:30:57.862Z,26.37
2019-02-21T21:33:47.784Z,25.93
2019-02-21T21:36:37.587Z,37.20
2019-02-21T21:39:27.459Z,26.57
2019-02-21T21:42:17.342Z,26.80
2019-02-21T21:45:09.561Z,24.83
2019-02-21T21:47:59.406Z,27.53
2019-02-21T21:50:49.264Z,25.00
2019-02-21T21:53:39.106Z,25.60
2019-02-21T21:56:28.915Z,26.00
2019-02-21T21:59:18.705Z,37.33
2019-02-21T22:02:08.595Z,48.10
2019-02-21T22:04:58.419Z,32.50
2019-02-21T22:07:49.290Z,28.63
2019-02-21T22:10:25.793Z,22.23
2019-02-21T22:13:15.594Z,25.53
2019-02-21T22:16:05.390Z,22.63
2019-02-21T22:18:55.181Z,20.57
2019-02-21T22:21:44.976Z,18.60
2019-02-21T22:24:34.784Z,23.00
2019-02-21T22:27:24.970Z,21.33
2019-02-21T22:30:10.037Z,19.67
2019-02-21T22:32:59.837Z,26.50
2019-02-21T22:35:50.029Z,19.87
2019-02-21T22:38:39.878Z,20.60
2019-02-21T22:41:48.710Z,18.33
2019-02-21T22:44:38.496Z,22.70
2019-02-21T22:47:28.293Z,19.07
2019-02-21T22:50:18.120Z,22.87
2019-02-21T22:53:07.979Z,20.83
2019-02-21T22:55:57.773Z,21.00
2019-02-21T22:58:47.584Z,18.40
2019-02-21T23:01:40.403Z,29.83
2019-02-21T23:05:08.323Z,19.23
2019-02-21T23:08:22.122Z,16.87
2019-02-21T23:11:12.054Z,20.53
2019-02-21T23:14:01.816Z,20.17
2019-02-21T23:16:51.691Z,20.80
2019-02-21T23:19:41.491Z,25.47
2019-02-21T23:22:31.306Z,25.67
2019-02-21T23:25:21.107Z,21.83
2019-02-21T23:28:10.920Z,17.83
2019-02-21T23:31:00.679Z,27.13
2019-02-21T23:36:50.195Z,18.33
2019-02-21T23:39:39.959Z,24.47
2019-02-21T23:42:29.774Z,23.73
2019-02-21T23:45:19.556Z,24.37
2019-02-21T23:48:09.390Z,26.80
2019-02-21T23:50:59.177Z,30.33
2019-02-21T23:53:48.989Z,31.03
2019-02-21T23:56:39.773Z,36.43
2019-02-21T23:59:29.574Z,28.20
